• Join FlightAware (Why Join?)
  • Login
  • US Flag 
10:40PM EDT


 

Airport Tracker/Info


-or-


 

Live Flight TrackerFlight Track Log ✈ SWA127 ✈ 11-Apr-2013 ✈ KPIT - KMCO

Flight Track Log - Related Links

Times and Time Zones

All times are in EDT time to prevent confusion due to time zone crossing. See the SWA127 flight status page for this flight to view local times or setup timezone preferences in your user account.

Time Position Orientation Groundspeed Altitude Reporting Facility
EDT Latitude Longitude Course Direction KTS MPH feet Rate Location/Type
06:41AM 40.4422 -80.3211 180° South 254 292 4,100  Level Cleveland Center
06:42AM 40.3794 -80.3214 180° South 266 306 7,500 3,060 Climbing Cleveland Center
06:43AM 40.2919 -80.3164 178° South 287 330 10,300 2,880 Climbing Cleveland Center
06:44AM 40.2022 -80.3114 178° South 312 359 13,300 2,880 Climbing Cleveland Center
06:45AM 40.1106 -80.3061 177° South 332 382 16,100 2,100 Climbing Cleveland Center
06:46AM 39.6682 -80.2500 180° South  Level FlightAware Approximate
06:46AM 40.0125 -80.3011 178° South 345 397 17,600  Level Cleveland Center
06:47AM 39.9042 -80.2961 178° South 364 419 19,600 2,100 Climbing Cleveland Center
06:48AM 39.7936 -80.2914 178° South 388 447 21,800 1,800 Climbing Cleveland Center
06:49AM 39.6792 -80.2864 178° South 405 466 23,300 1,380 Climbing Cleveland Center
06:51AM 39.4642 -80.2772 178° South 442 509 25,900 1,320 Climbing Washington Center
06:52AM 39.3394 -80.2719 178° South 447 514 27,200 1,560 Climbing Washington Center
06:53AM 39.2161 -80.2800 183° South 447 514 29,100 1,260 Climbing Washington Center
06:54AM 39.0797 -80.3006 187° South 447 514 29,800 3,420 Climbing Washington Center
06:55AM 38.9733 -80.3578 203° Southwest 447 514 36,000 840 Climbing Washington Center
06:56AM 38.8489 -80.3872 190° South 447 514 31,500 -2,040 Descending Washington Center
06:57AM 38.7264 -80.4297 195° South 452 520 32,000 240 Climbing Washington Center
06:58AM 38.6122 -80.4647 193° South 457 526 32,000  Level Washington Center
06:59AM 38.4878 -80.4989 192° South 457 526 32,000  Level Washington Center
07:00AM 38.3508 -80.5375 192° South 457 526 32,000 -180 Level Washington Center
07:01AM 38.2228 -80.5556 186° South 457 526 31,700 -720 Descending Washington Center
07:02AM 38.1011 -80.5739 187° South 452 520 30,600 -900 Descending Washington Center
07:03AM 37.9900 -80.5875 186° South 452 520 30,000 -240 Descending Washington Center
07:05AM 37.7433 -80.6253 187° South 448 516 30,000 -240 Level Atlanta Center
07:06AM 37.6061 -80.6419 185° South 442 509 29,400 -540 Descending Atlanta Center
07:07AM 37.4839 -80.6603 187° South 442 509 29,000 -240 Descending Atlanta Center
07:08AM 37.3633 -80.6758 186° South 442 509 29,000  Level Atlanta Center
07:09AM 37.2511 -80.6911 186° South 442 509 29,000  Level Atlanta Center
07:10AM 37.1203 -80.7097 186° South 459 528 29,000  Level Atlanta Center
07:11AM 36.9875 -80.7256 185° South 473 544 29,000  Level Atlanta Center
07:12AM 36.8544 -80.7389 185° South 480 552 29,000  Level Atlanta Center
07:13AM 36.7294 -80.7519 185° South 475 547 29,000 -240 Level Atlanta Center
07:14AM 36.5967 -80.7678 185° South 480 552 28,600 -540 Descending Atlanta Center
07:15AM 36.4697 -80.7781 184° South 475 547 28,000 -300 Descending Atlanta Center
07:16AM 36.3450 -80.7961 187° South 463 533 28,000  Level Atlanta Center
07:17AM 36.2056 -80.8094 184° South 463 533 28,000  Level Atlanta Center
07:18AM 36.0767 -80.8222 185° South 463 533 28,000  Level Atlanta Center
07:19AM 35.9478 -80.8378 186° South 463 533 28,000  Level Atlanta Center
07:20AM 35.8186 -80.8503 184° South 463 533 28,000  Level Atlanta Center
07:21AM 35.6897 -80.8631 185° South 463 533 28,000  Level Atlanta Center
07:22AM 35.5608 -80.8783 186° South 463 533 28,000  Level Atlanta Center
07:23AM 35.4442 -80.8878 184° South 469 540 28,000  Level Atlanta Center
07:24AM 35.3153 -80.9056 186° South 469 540 28,000  Level Atlanta Center
07:26AM 35.0250 -80.9381 185° South 478 550 28,000  Level Jacksonville Center
07:27AM 34.8958 -80.9514 185° South 472 543 28,000  Level Jacksonville Center
07:28AM 34.7667 -80.9617 184° South 478 550 28,000  Level Jacksonville Center
07:29AM 34.6356 -80.9800 187° South 478 550 28,000  Level Jacksonville Center
07:30AM 34.5064 -80.9903 184° South 478 550 28,000  Level Jacksonville Center
07:31AM 34.3647 -81.0061 185° South 478 550 28,000  Level Jacksonville Center
07:32AM 34.2356 -81.0189 185° South 473 544 28,000  Level Jacksonville Center
07:33AM 34.1086 -81.0292 184° South 467 537 28,000  Level Jacksonville Center
07:34AM 33.9753 -81.0419 185° South 467 537 28,000  Level Jacksonville Center
07:35AM 33.8481 -81.0547 185° South 472 543 28,000  Level Jacksonville Center
07:36AM 33.7147 -81.0700 185° South 472 543 28,000  Level Jacksonville Center
07:37AM 33.5833 -81.0800 184° South 477 549 28,000  Level Jacksonville Center
07:38AM 33.4522 -81.0928 185° South 477 549 28,000  Level Jacksonville Center
07:39AM 33.3208 -81.1028 184° South 477 549 28,000  Level Jacksonville Center
07:40AM 33.1894 -81.1128 184° South 477 549 28,000  Level Jacksonville Center
07:41AM 33.0603 -81.1253 185° South 477 549 28,000  Level Jacksonville Center
07:42AM 32.9289 -81.1353 184° South 477 549 28,000  Level Jacksonville Center
07:43AM 32.8081 -81.1475 185° South 483 556 28,000  Level Jacksonville Center
07:44AM 32.6808 -81.1575 184° South 473 544 28,000  Level Jacksonville Center
07:45AM 32.5347 -81.1700 184° South 473 544 28,000  Level Jacksonville Center
07:46AM 32.4158 -81.1772 183° South 483 556 28,000  Level Jacksonville Center
07:47AM 32.2825 -81.1897 185° South 483 556 28,000  Level Jacksonville Center
07:48AM 32.1489 -81.1994 184° South 483 556 28,000  Level Jacksonville Center
07:49AM 32.0175 -81.1969 179° South 473 544 28,000  Level Jacksonville Center
07:50AM 31.8858 -81.1922 178° South 473 544 28,000  Level Jacksonville Center
07:51AM 31.7417 -81.1875 178° South 478 550 28,000  Level Jacksonville Center
07:52AM 31.6081 -81.1850 179° South 478 550 28,000  Level Jacksonville Center
07:53AM 31.4889 -81.1797 178° South 478 550 28,000  Level Jacksonville Center
07:54AM 31.3406 -81.1778 179° South 483 556 28,000  Level Jacksonville Center
07:55AM 31.2092 -81.1753 179° South 478 550 28,000  Level Jacksonville Center
07:56AM 31.0733 -81.1706 178° South 483 556 28,000 -60 Level Jacksonville Center
07:57AM 30.9458 -81.1656 178° South 478 550 27,900  Descending Jacksonville Center
07:58AM 30.8164 -81.1606 178° South 473 544 28,000  Climbing Jacksonville Center
07:59AM 30.6828 -81.1558 178° South 473 544 28,000  Level Jacksonville Center
08:00AM 30.5533 -81.1533 179° South 473 544 28,000  Level Jacksonville Center
08:01AM 30.4258 -81.1483 178° South 473 544 28,000  Level Jacksonville Center
08:02AM 30.2964 -81.1436 178° South 467 537 28,000  Level Jacksonville Center
08:03AM 30.1667 -81.1411 179° South 467 537 28,000  Level Jacksonville Center
08:04AM 30.0394 -81.1364 178° South 467 537 28,000 -60 Level Jacksonville Center
08:05AM 29.9119 -81.1336 179° South 462 532 27,900 -360 Descending Jacksonville Center
08:06AM 29.7803 -81.1289 178° South 462 532 27,300 -1,620 Descending Jacksonville Center
08:07AM 29.6572 -81.1289 180° South 456 525 24,700 -2,640 Descending Jacksonville Center
08:08AM 29.5361 -81.1239 178° South 450 518 22,100 -2,280 Descending Jacksonville Center
08:09AM 29.4358 -81.1208 178° South 425 489 20,200 -2,100 Descending Jacksonville Center
08:10AM 29.3250 -81.1133 177° South 411 473 17,900 -2,340 Descending Jacksonville Center
08:11AM 29.2228 -81.1081 177° South 389 448 15,600 -2,220 Descending Jacksonville Center
08:12AM 29.1244 -81.1003 176° South 371 427 13,500 -1,800 Descending Jacksonville Center
08:13AM 29.0306 -81.0925 176° South 360 414 12,000 -900 Descending Jacksonville Center
08:14AM 28.9428 -81.0800 173° South 336 387 11,700 -1,140 Descending Jacksonville Center
08:15AM 28.8667 -81.0667 171° South 290 334 10,000 -1,980 Descending Orlando TRACON
08:16AM 28.8000 -81.0667 180° South 287 330 8,300 -1,680 Descending Orlando TRACON
08:16AM 28.7500 -81.1167 221° Southwest 280 322 6,900 -1,620 Descending Orlando TRACON
08:18AM 28.7000 -81.2000 236° Southwest 272 313 5,100 -1,200 Descending Orlando TRACON
08:18AM 28.6667 -81.2500 233° Southwest 229 264 4,600 -660 Descending Orlando TRACON
08:19AM 28.6333 -81.3000 233° Southwest 171 197 3,900 -840 Descending Orlando TRACON
08:20AM 28.5833 -81.3000 180° South 147 169 3,000 -840 Descending Orlando TRACON
08:21AM 28.5500 -81.3000 180° South 116 133 2,400 -600 Descending Orlando TRACON
08:22AM 28.5167 -81.3000 180° South 119 137 1,800 -660 Descending Orlando TRACON
08:23AM 28.4833 -81.3000 180° South 119 137 1,100 -660 Descending Orlando TRACON
08:24AM 28.4500 -81.3000 180° South 125 144 500 -600 Descending Orlando TRACON
08:26AM 28.4294 -81.3090 161° South  Level Estimated
08:33AM 28.4294 -81.3090 336° Northwest  Level Estimated
08:34AM 28.4294 -81.3090 336° Northwest  Level Estimated
08:35AM 28.4294 -81.3090 336° Northwest  Level Estimated
08:36AM 28.4294 -81.3090 336° Northwest  Level Estimated